sensor_id;sensor_type;location;lat;lon;timestamp;pressure;altitude;pressure_sealevel;temperature;humidity
39613;BME280;25303;48.896;13.342;2023-03-14T00:01:34;91327.28;;;8.34;54.75
39613;BME280;25303;48.896;13.342;2023-03-14T00:04:17;91339.81;;;8.29;54.84
39613;BME280;25303;48.896;13.342;2023-03-14T00:07:00;91332.59;;;8.33;55.33
39613;BME280;25303;48.896;13.342;2023-03-14T00:09:44;91312.16;;;8.40;55.20
39613;BME280;25303;48.896;13.342;2023-03-14T00:12:27;91315.94;;;8.44;55.21
39613;BME280;25303;48.896;13.342;2023-03-14T00:15:10;91325.06;;;8.31;55.79
39613;BME280;25303;48.896;13.342;2023-03-14T00:17:53;91313.06;;;8.32;55.74
39613;BME280;25303;48.896;13.342;2023-03-14T00:20:36;91312.09;;;8.33;55.78
39613;BME280;25303;48.896;13.342;2023-03-14T00:23:19;91305.00;;;8.35;55.88
39613;BME280;25303;48.896;13.342;2023-03-14T00:26:05;91311.09;;;8.34;56.12
39613;BME280;25303;48.896;13.342;2023-03-14T00:28:51;91312.44;;;8.30;55.91
39613;BME280;25303;48.896;13.342;2023-03-14T00:31:34;91313.28;;;8.15;56.66
39613;BME280;25303;48.896;13.342;2023-03-14T00:34:17;91309.13;;;8.14;56.74
39613;BME280;25303;48.896;13.342;2023-03-14T00:37:00;91316.28;;;8.04;57.06
39613;BME280;25303;48.896;13.342;2023-03-14T00:39:43;91311.59;;;8.08;56.99
39613;BME280;25303;48.896;13.342;2023-03-14T00:42:27;91321.59;;;8.02;57.35
39613;BME280;25303;48.896;13.342;2023-03-14T00:45:12;91300.75;;;7.90;57.55
39613;BME280;25303;48.896;13.342;2023-03-14T00:47:55;91298.91;;;7.84;57.96
39613;BME280;25303;48.896;13.342;2023-03-14T00:50:38;91298.91;;;7.84;58.21
39613;BME280;25303;48.896;13.342;2023-03-14T00:53:21;91296.59;;;7.89;57.54
39613;BME280;25303;48.896;13.342;2023-03-14T00:56:07;91282.72;;;7.84;57.80
39613;BME280;25303;48.896;13.342;2023-03-14T00:58:54;91273.28;;;7.84;57.96
39613;BME280;25303;48.896;13.342;2023-03-14T01:01:38;91254.59;;;7.69;59.06
39613;BME280;25303;48.896;13.342;2023-03-14T01:04:21;91246.22;;;7.45;60.06
39613;BME280;25303;48.896;13.342;2023-03-14T01:07:04;91251.22;;;7.53;59.86
39613;BME280;25303;48.896;13.342;2023-03-14T01:09:51;91257.78;;;7.56;59.19
39613;BME280;25303;48.896;13.342;2023-03-14T01:12:33;91261.75;;;7.58;58.79
39613;BME280;25303;48.896;13.342;2023-03-14T01:15:18;91269.00;;;7.55;58.58
39613;BME280;25303;48.896;13.342;2023-03-14T01:18:02;91269.53;;;7.50;58.83
39613;BME280;25303;48.896;13.342;2023-03-14T01:20:44;91275.97;;;7.46;59.38
39613;BME280;25303;48.896;13.342;2023-03-14T01:23:27;91278.25;;;7.41;59.41
39613;BME280;25303;48.896;13.342;2023-03-14T01:26:11;91283.38;;;7.41;59.44
39613;BME280;25303;48.896;13.342;2023-03-14T01:28:55;91279.84;;;7.42;59.63
39613;BME280;25303;48.896;13.342;2023-03-14T01:31:40;91276.50;;;7.41;59.59
39613;BME280;25303;48.896;13.342;2023-03-14T01:34:23;91269.16;;;7.38;59.62
39613;BME280;25303;48.896;13.342;2023-03-14T01:37:05;91248.84;;;7.37;59.76
39613;BME280;25303;48.896;13.342;2023-03-14T01:39:51;91225.56;;;7.32;60.00
39613;BME280;25303;48.896;13.342;2023-03-14T01:42:34;91203.22;;;7.25;60.23
39613;BME280;25303;48.896;13.342;2023-03-14T01:48:42;91225.56;;;7.17;60.81
39613;BME280;25303;48.896;13.342;2023-03-14T01:51:30;91234.66;;;7.19;60.79
39613;BME280;25303;48.896;13.342;2023-03-14T01:54:19;91235.88;;;7.23;60.92
39613;BME280;25303;48.896;13.342;2023-03-14T01:57:07;91256.81;;;7.27;60.99
39613;BME280;25303;48.896;13.342;2023-03-14T01:59:53;91249.91;;;7.27;61.27
39613;BME280;25303;48.896;13.342;2023-03-14T02:02:40;91250.88;;;7.26;61.19
39613;BME280;25303;48.896;13.342;2023-03-14T02:05:28;91241.00;;;7.23;61.14
39613;BME280;25303;48.896;13.342;2023-03-14T02:08:21;91232.88;;;7.20;61.68
39613;BME280;25303;48.896;13.342;2023-03-14T02:11:10;91238.00;;;7.20;61.50
39613;BME280;25303;48.896;13.342;2023-03-14T02:14:20;91240.38;;;7.21;62.00
39613;BME280;25303;48.896;13.342;2023-03-14T02:17:18;91243.56;;;7.23;62.01
39613;BME280;25303;48.896;13.342;2023-03-14T02:20:27;91248.16;;;7.28;62.37
39613;BME280;25303;48.896;13.342;2023-03-14T02:23:15;91259.19;;;7.28;62.43
39613;BME280;25303;48.896;13.342;2023-03-14T02:26:02;91265.09;;;7.29;62.66
39613;BME280;25303;48.896;13.342;2023-03-14T02:28:49;91263.78;;;7.33;62.82
39613;BME280;25303;48.896;13.342;2023-03-14T02:31:35;91266.78;;;7.37;63.25
39613;BME280;25303;48.896;13.342;2023-03-14T02:34:18;91268.63;;;7.43;63.80
39613;BME280;25303;48.896;13.342;2023-03-14T02:37:00;91284.50;;;7.53;63.78
39613;BME280;25303;48.896;13.342;2023-03-14T02:39:45;91286.38;;;7.59;63.79
39613;BME280;25303;48.896;13.342;2023-03-14T02:42:31;91291.16;;;7.63;64.00
39613;BME280;25303;48.896;13.342;2023-03-14T02:45:35;91289.63;;;7.68;65.68
39613;BME280;25303;48.896;13.342;2023-03-14T02:48:20;91283.97;;;7.73;64.36
39613;BME280;25303;48.896;13.342;2023-03-14T02:51:04;91287.16;;;7.75;64.72
39613;BME280;25303;48.896;13.342;2023-03-14T02:53:47;91297.06;;;7.78;64.77
39613;BME280;25303;48.896;13.342;2023-03-14T02:56:31;91291.16;;;7.78;65.57
39613;BME280;25303;48.896;13.342;2023-03-14T02:59:15;91298.03;;;7.77;66.15
39613;BME280;25303;48.896;13.342;2023-03-14T03:02:10;91293.25;;;7.74;66.70
39613;BME280;25303;48.896;13.342;2023-03-14T03:04:53;91288.13;;;7.74;67.13
39613;BME280;25303;48.896;13.342;2023-03-14T03:07:36;91283.34;;;7.71;67.64
39613;BME280;25303;48.896;13.342;2023-03-14T03:10:19;91282.75;;;7.69;67.94
39613;BME280;25303;48.896;13.342;2023-03-14T03:13:02;91270.22;;;7.59;70.08
39613;BME280;25303;48.896;13.342;2023-03-14T03:15:45;91255.03;;;7.57;70.03
39613;BME280;25303;48.896;13.342;2023-03-14T03:18:29;91246.03;;;7.62;69.41
39613;BME280;25303;48.896;13.342;2023-03-14T03:21:13;91242.22;;;7.57;70.40
39613;BME280;25303;48.896;13.342;2023-03-14T03:23:57;91247.19;;;7.59;70.55
39613;BME280;25303;48.896;13.342;2023-03-14T03:26:40;91255.66;;;7.59;71.04
39613;BME280;25303;48.896;13.342;2023-03-14T03:29:24;91258.81;;;7.62;71.15
39613;BME280;25303;48.896;13.342;2023-03-14T03:32:08;91249.56;;;7.60;71.53
39613;BME280;25303;48.896;13.342;2023-03-14T03:34:52;91247.34;;;7.57;71.91
39613;BME280;25303;48.896;13.342;2023-03-14T03:37:35;91243.81;;;7.58;71.72
39613;BME280;25303;48.896;13.342;2023-03-14T03:40:20;91237.63;;;7.53;75.39
39613;BME280;25303;48.896;13.342;2023-03-14T03:43:03;91238.81;;;7.50;73.05
39613;BME280;25303;48.896;13.342;2023-03-14T03:45:50;91242.50;;;7.48;72.73
39613;BME280;25303;48.896;13.342;2023-03-14T03:48:35;91241.72;;;7.47;72.61
39613;BME280;25303;48.896;13.342;2023-03-14T03:51:21;91243.03;;;7.43;72.78
39613;BME280;25303;48.896;13.342;2023-03-14T03:54:04;91252.66;;;7.41;72.79
39613;BME280;25303;48.896;13.342;2023-03-14T03:56:47;91252.22;;;7.37;73.37
39613;BME280;25303;48.896;13.342;2023-03-14T03:59:30;91251.25;;;7.38;73.25
39613;BME280;25303;48.896;13.342;2023-03-14T04:02:13;91247.28;;;7.36;72.89
39613;BME280;25303;48.896;13.342;2023-03-14T04:04:56;91239.97;;;7.33;73.27
39613;BME280;25303;48.896;13.342;2023-03-14T04:07:40;91242.69;;;7.31;73.28
39613;BME280;25303;48.896;13.342;2023-03-14T04:10:24;91219.19;;;7.27;73.73
39613;BME280;25303;48.896;13.342;2023-03-14T04:13:19;91212.50;;;7.26;73.81
39613;BME280;25303;48.896;13.342;2023-03-14T04:16:14;91213.91;;;7.29;73.82
39613;BME280;25303;48.896;13.342;2023-03-14T04:18:57;91224.75;;;7.31;73.51
39613;BME280;25303;48.896;13.342;2023-03-14T04:21:41;91226.34;;;7.32;73.68
39613;BME280;25303;48.896;13.342;2023-03-14T04:24:28;91231.31;;;7.34;73.73
39613;BME280;25303;48.896;13.342;2023-03-14T04:27:11;91221.06;;;7.34;73.66
39613;BME280;25303;48.896;13.342;2023-03-14T04:29:57;91223.97;;;7.30;74.00
39613;BME280;25303;48.896;13.342;2023-03-14T04:33:18;91225.72;;;7.30;74.02
39613;BME280;25303;48.896;13.342;2023-03-14T04:36:06;91225.13;;;7.28;74.26
39613;BME280;25303;48.896;13.342;2023-03-14T04:38:50;91221.94;;;7.26;74.61
39613;BME280;25303;48.896;13.342;2023-03-14T04:41:36;91229.78;;;7.24;74.96
39613;BME280;25303;48.896;13.342;2023-03-14T04:44:20;91222.91;;;7.25;74.99
39613;BME280;25303;48.896;13.342;2023-03-14T04:47:06;91214.44;;;7.24;75.06
39613;BME280;25303;48.896;13.342;2023-03-14T04:49:50;91219.75;;;7.23;75.33
39613;BME280;25303;48.896;13.342;2023-03-14T04:52:33;91217.00;;;7.24;75.27
39613;BME280;25303;48.896;13.342;2023-03-14T04:55:17;91213.81;;;7.22;75.86
39613;BME280;25303;48.896;13.342;2023-03-14T04:58:01;91212.22;;;7.21;76.01
39613;BME280;25303;48.896;13.342;2023-03-14T05:00:44;91220.09;;;7.20;76.49
39613;BME280;25303;48.896;13.342;2023-03-14T05:03:47;91209.75;;;7.13;77.46
39613;BME280;25303;48.896;13.342;2023-03-14T05:06:50;91214.69;;;7.14;77.47
39613;BME280;25303;48.896;13.342;2023-03-14T05:09:52;91212.75;;;7.17;77.04
39613;BME280;25303;48.896;13.342;2023-03-14T05:12:56;91214.06;;;7.12;77.73
39613;BME280;25303;48.896;13.342;2023-03-14T05:16:05;91218.41;;;7.12;77.98
39613;BME280;25303;48.896;13.342;2023-03-14T05:19:06;91220.78;;;7.13;77.67
39613;BME280;25303;48.896;13.342;2023-03-14T05:22:07;91208.97;;;7.12;77.56
39613;BME280;25303;48.896;13.342;2023-03-14T05:25:07;91215.06;;;7.11;77.75
39613;BME280;25303;48.896;13.342;2023-03-14T05:28:02;91207.41;;;7.11;77.82
39613;BME280;25303;48.896;13.342;2023-03-14T05:31:08;91201.66;;;7.09;78.08
39613;BME280;25303;48.896;13.342;2023-03-14T05:34:02;91198.91;;;7.11;78.01
39613;BME280;25303;48.896;13.342;2023-03-14T05:36:54;91204.84;;;7.11;77.81
39613;BME280;25303;48.896;13.342;2023-03-14T05:40:05;91201.47;;;7.11;78.07
39613;BME280;25303;48.896;13.342;2023-03-14T05:42:57;91198.91;;;7.11;78.03
39613;BME280;25303;48.896;13.342;2023-03-14T05:45:58;91198.28;;;7.09;78.20
39613;BME280;25303;48.896;13.342;2023-03-14T05:49:08;91201.03;;;7.07;78.37
39613;BME280;25303;48.896;13.342;2023-03-14T05:51:59;91202.78;;;7.07;78.41
39613;BME280;25303;48.896;13.342;2023-03-14T05:55:01;91201.81;;;7.08;78.35
39613;BME280;25303;48.896;13.342;2023-03-14T05:57:49;91200.22;;;7.07;78.35
39613;BME280;25303;48.896;13.342;2023-03-14T06:00:51;91197.84;;;7.05;78.76
39613;BME280;25303;48.896;13.342;2023-03-14T06:03:47;91199.25;;;7.08;78.54
39613;BME280;25303;48.896;13.342;2023-03-14T06:06:31;91204.22;;;7.09;78.48
39613;BME280;25303;48.896;13.342;2023-03-14T06:09:15;91202.28;;;7.11;78.43
39613;BME280;25303;48.896;13.342;2023-03-14T06:11:58;91202.88;;;7.13;78.36
39613;BME280;25303;48.896;13.342;2023-03-14T06:14:44;91201.13;;;7.14;78.31
39613;BME280;25303;48.896;13.342;2023-03-14T06:17:28;91197.16;;;7.11;78.73
39613;BME280;25303;48.896;13.342;2023-03-14T06:20:18;91198.72;;;7.12;78.76
39613;BME280;25303;48.896;13.342;2023-03-14T06:23:02;91193.59;;;7.12;78.52
39613;BME280;25303;48.896;13.342;2023-03-14T06:25:45;91205.19;;;7.08;78.68
39613;BME280;25303;48.896;13.342;2023-03-14T06:28:28;91196.06;;;7.06;78.88
39613;BME280;25303;48.896;13.342;2023-03-14T06:31:14;91185.22;;;7.04;79.01
39613;BME280;25303;48.896;13.342;2023-03-14T06:34:06;91183.81;;;7.01;79.21
39613;BME280;25303;48.896;13.342;2023-03-14T06:36:49;91180.00;;;6.97;79.24
39613;BME280;25303;48.896;13.342;2023-03-14T06:39:33;91177.66;;;6.95;79.26
39613;BME280;25303;48.896;13.342;2023-03-14T06:42:26;91178.00;;;6.92;79.17
39613;BME280;25303;48.896;13.342;2023-03-14T06:45:09;91174.03;;;6.90;79.22
39613;BME280;25303;48.896;13.342;2023-03-14T06:47:52;91166.88;;;6.85;79.38
39613;BME280;25303;48.896;13.342;2023-03-14T06:50:41;91170.56;;;6.82;79.44
39613;BME280;25303;48.896;13.342;2023-03-14T06:53:24;91182.16;;;6.78;79.43
39613;BME280;25303;48.896;13.342;2023-03-14T06:56:09;91166.19;;;6.76;79.65
39613;BME280;25303;48.896;13.342;2023-03-14T06:58:52;91177.19;;;6.77;79.58
39613;BME280;25303;48.896;13.342;2023-03-14T07:01:37;91179.66;;;6.70;80.08
39613;BME280;25303;48.896;13.342;2023-03-14T07:04:24;91172.94;;;6.69;80.01
39613;BME280;25303;48.896;13.342;2023-03-14T07:07:07;91174.88;;;6.67;80.26
39613;BME280;25303;48.896;13.342;2023-03-14T07:09:50;91178.25;;;6.67;80.52
39613;BME280;25303;48.896;13.342;2023-03-14T07:12:35;91178.06;;;6.69;80.47
39613;BME280;25303;48.896;13.342;2023-03-14T07:15:18;91189.25;;;6.68;80.52
39613;BME280;25303;48.896;13.342;2023-03-14T07:18:06;91198.19;;;6.72;80.25
39613;BME280;25303;48.896;13.342;2023-03-14T07:20:49;91182.03;;;6.72;80.53
39613;BME280;25303;48.896;13.342;2023-03-14T07:23:33;91188.91;;;6.71;80.53
39613;BME280;25303;48.896;13.342;2023-03-14T07:26:16;91189.34;;;6.75;80.26
39613;BME280;25303;48.896;13.342;2023-03-14T07:29:05;91188.28;;;6.69;80.64
39613;BME280;25303;48.896;13.342;2023-03-14T07:31:48;91181.25;;;6.71;80.53
39613;BME280;25303;48.896;13.342;2023-03-14T07:34:33;91176.31;;;6.69;80.69
39613;BME280;25303;48.896;13.342;2023-03-14T07:37:16;91186.78;;;6.75;80.59
39613;BME280;25303;48.896;13.342;2023-03-14T07:39:59;91182.16;;;6.78;80.36
39613;BME280;25303;48.896;13.342;2023-03-14T07:42:44;91169.94;;;6.80;80.16
39613;BME280;25303;48.896;13.342;2023-03-14T07:45:41;91173.47;;;6.79;80.65
39613;BME280;25303;48.896;13.342;2023-03-14T07:48:24;91158.75;;;6.81;80.43
39613;BME280;25303;48.896;13.342;2023-03-14T07:51:09;91161.59;;;6.87;80.17
39613;BME280;25303;48.896;13.342;2023-03-14T07:53:51;91162.22;;;6.89;80.14
39613;BME280;25303;48.896;13.342;2023-03-14T07:56:34;91167.13;;;6.90;80.11
39613;BME280;25303;48.896;13.342;2023-03-14T07:59:17;91168.38;;;6.94;79.95
39613;BME280;25303;48.896;13.342;2023-03-14T08:02:01;91180.38;;;6.94;80.20
39613;BME280;25303;48.896;13.342;2023-03-14T08:04:47;91186.72;;;6.98;80.17
39613;BME280;25303;48.896;13.342;2023-03-14T08:07:30;91191.16;;;7.04;80.34
39613;BME280;25303;48.896;13.342;2023-03-14T08:10:13;91184.72;;;7.08;80.17
39613;BME280;25303;48.896;13.342;2023-03-14T08:13:03;91186.53;;;7.14;80.32
39613;BME280;25303;48.896;13.342;2023-03-14T08:15:47;91185.84;;;7.21;79.95
39613;BME280;25303;48.896;13.342;2023-03-14T08:18:32;91191.03;;;7.27;79.94
39613;BME280;25303;48.896;13.342;2023-03-14T08:21:14;91200.13;;;7.30;79.63
39613;BME280;25303;48.896;13.342;2023-03-14T08:23:57;91194.66;;;7.33;79.50
39613;BME280;25303;48.896;13.342;2023-03-14T08:26:40;91197.41;;;7.32;79.51
39613;BME280;25303;48.896;13.342;2023-03-14T08:29:23;91194.22;;;7.29;79.51
39613;BME280;25303;48.896;13.342;2023-03-14T08:32:06;91204.91;;;7.33;79.32
39613;BME280;25303;48.896;13.342;2023-03-14T08:34:50;91203.56;;;7.22;79.71
39613;BME280;25303;48.896;13.342;2023-03-14T08:37:33;91207.72;;;7.23;79.15
39613;BME280;25303;48.896;13.342;2023-03-14T08:40:16;91193.72;;;7.19;79.26
39613;BME280;25303;48.896;13.342;2023-03-14T08:42:59;91191.75;;;7.21;78.91
39613;BME280;25303;48.896;13.342;2023-03-14T08:45:42;91187.88;;;7.25;79.12
39613;BME280;25303;48.896;13.342;2023-03-14T08:48:25;91191.59;;;7.23;79.07
39613;BME280;25303;48.896;13.342;2023-03-14T08:51:12;91185.50;;;7.24;78.73
39613;BME280;25303;48.896;13.342;2023-03-14T08:53:55;91189.88;;;7.30;78.67
39613;BME280;25303;48.896;13.342;2023-03-14T08:56:38;91187.16;;;7.32;78.53
39613;BME280;25303;48.896;13.342;2023-03-14T08:59:21;91182.03;;;7.32;78.30
39613;BME280;25303;48.896;13.342;2023-03-14T09:02:05;91191.41;;;7.24;78.06
39613;BME280;25303;48.896;13.342;2023-03-14T09:04:49;91178.78;;;7.23;78.15
39613;BME280;25303;48.896;13.342;2023-03-14T09:07:34;91180.03;;;7.27;78.09
39613;BME280;25303;48.896;13.342;2023-03-14T09:10:17;91174.09;;;7.26;78.04
39613;BME280;25303;48.896;13.342;2023-03-14T09:12:59;91182.66;;;7.34;77.56
39613;BME280;25303;48.896;13.342;2023-03-14T09:15:42;91181.06;;;7.33;77.65
39613;BME280;25303;48.896;13.342;2023-03-14T09:18:25;91168.50;;;7.38;77.49
39613;BME280;25303;48.896;13.342;2023-03-14T09:21:08;91175.50;;;7.44;77.29
39613;BME280;25303;48.896;13.342;2023-03-14T09:23:52;91177.50;;;7.49;77.04
39613;BME280;25303;48.896;13.342;2023-03-14T09:26:35;91173.00;;;7.51;76.80
39613;BME280;25303;48.896;13.342;2023-03-14T09:29:18;91173.81;;;7.51;77.01
39613;BME280;25303;48.896;13.342;2023-03-14T09:32:01;91171.25;;;7.51;76.83
39613;BME280;25303;48.896;13.342;2023-03-14T09:34:44;91171.94;;;7.60;76.86
39613;BME280;25303;48.896;13.342;2023-03-14T09:37:27;91174.38;;;7.68;76.90
39613;BME280;25303;48.896;13.342;2023-03-14T09:40:14;91173.22;;;7.71;76.64
39613;BME280;25303;48.896;13.342;2023-03-14T09:42:57;91182.75;;;7.77;76.18
39613;BME280;25303;48.896;13.342;2023-03-14T09:45:42;91177.81;;;7.75;75.92
39613;BME280;25303;48.896;13.342;2023-03-14T09:48:30;91183.09;;;7.74;75.51
39613;BME280;25303;48.896;13.342;2023-03-14T09:51:17;91185.44;;;7.69;75.95
39613;BME280;25303;48.896;13.342;2023-03-14T09:54:01;91181.66;;;7.65;75.52
39613;BME280;25303;48.896;13.342;2023-03-14T09:56:45;91191.19;;;7.56;74.98
39613;BME280;25303;48.896;13.342;2023-03-14T09:59:29;91189.00;;;7.53;75.15
39613;BME280;25303;48.896;13.342;2023-03-14T10:02:16;91186.78;;;7.50;75.06
39613;BME280;25303;48.896;13.342;2023-03-14T10:05:00;91193.13;;;7.54;75.07
39613;BME280;25303;48.896;13.342;2023-03-14T10:07:47;91197.28;;;7.55;75.09
39613;BME280;25303;48.896;13.342;2023-03-14T10:10:31;91196.59;;;7.61;75.06
39613;BME280;25303;48.896;13.342;2023-03-14T10:13:18;91204.69;;;7.65;74.79
39613;BME280;25303;48.896;13.342;2023-03-14T10:16:02;91197.25;;;7.70;74.85
39613;BME280;25303;48.896;13.342;2023-03-14T10:18:47;91193.69;;;7.86;75.27
39613;BME280;25303;48.896;13.342;2023-03-14T10:21:31;91188.69;;;7.99;75.66
39613;BME280;25303;48.896;13.342;2023-03-14T10:24:20;91188.81;;;8.13;75.36
39613;BME280;25303;48.896;13.342;2023-03-14T10:27:04;91175.06;;;8.20;74.87
39613;BME280;25303;48.896;13.342;2023-03-14T10:29:54;91180.66;;;8.24;74.31
39613;BME280;25303;48.896;13.342;2023-03-14T10:32:45;91188.97;;;8.26;74.23
39613;BME280;25303;48.896;13.342;2023-03-14T10:35:33;91183.22;;;8.24;74.38
39613;BME280;25303;48.896;13.342;2023-03-14T10:38:17;91180.47;;;8.26;74.54
39613;BME280;25303;48.896;13.342;2023-03-14T10:41:00;91178.88;;;8.25;74.62
39613;BME280;25303;48.896;13.342;2023-03-14T10:43:44;91183.63;;;8.28;74.63
39613;BME280;25303;48.896;13.342;2023-03-14T10:46:30;91187.22;;;8.33;74.74
39613;BME280;25303;48.896;13.342;2023-03-14T10:49:34;91189.78;;;8.33;75.09
39613;BME280;25303;48.896;13.342;2023-03-14T10:52:20;91184.84;;;8.32;74.83
39613;BME280;25303;48.896;13.342;2023-03-14T10:55:16;91182.09;;;8.33;75.19
39613;BME280;25303;48.896;13.342;2023-03-14T10:57:59;91183.88;;;8.33;75.10
39613;BME280;25303;48.896;13.342;2023-03-14T11:00:42;91186.41;;;8.26;74.79
39613;BME280;25303;48.896;13.342;2023-03-14T11:03:30;91178.63;;;8.19;75.20
39613;BME280;25303;48.896;13.342;2023-03-14T11:06:18;91177.47;;;8.22;75.09
39613;BME280;25303;48.896;13.342;2023-03-14T11:09:10;91184.19;;;8.23;75.15
39613;BME280;25303;48.896;13.342;2023-03-14T11:12:02;91172.00;;;8.25;75.25
39613;BME280;25303;48.896;13.342;2023-03-14T11:14:54;91169.44;;;8.25;75.52
39613;BME280;25303;48.896;13.342;2023-03-14T11:17:47;91172.22;;;8.30;75.74
39613;BME280;25303;48.896;13.342;2023-03-14T11:20:41;91163.72;;;8.30;75.92
39613;BME280;25303;48.896;13.342;2023-03-14T11:23:31;91170.03;;;8.27;75.32
39613;BME280;25303;48.896;13.342;2023-03-14T11:26:26;91165.03;;;8.19;75.00
39613;BME280;25303;48.896;13.342;2023-03-14T11:29:20;91170.66;;;8.08;74.70
39613;BME280;25303;48.896;13.342;2023-03-14T11:32:11;91174.84;;;7.94;75.30
39613;BME280;25303;48.896;13.342;2023-03-14T11:34:56;91163.19;;;7.91;75.66
39613;BME280;25303;48.896;13.342;2023-03-14T11:37:46;91164.59;;;7.94;75.57
39613;BME280;25303;48.896;13.342;2023-03-14T11:40:31;91157.16;;;7.99;75.83
39613;BME280;25303;48.896;13.342;2023-03-14T11:43:20;91156.19;;;8.00;75.96
39613;BME280;25303;48.896;13.342;2023-03-14T11:46:10;91162.69;;;8.02;75.88
39613;BME280;25303;48.896;13.342;2023-03-14T11:49:01;91158.56;;;8.01;75.83
39613;BME280;25303;48.896;13.342;2023-03-14T11:51:47;91153.47;;;8.08;75.81
39613;BME280;25303;48.896;13.342;2023-03-14T11:54:39;91156.31;;;8.13;76.33
39613;BME280;25303;48.896;13.342;2023-03-14T11:57:27;91152.75;;;8.14;75.82
39613;BME280;25303;48.896;13.342;2023-03-14T12:00:15;91147.28;;;8.17;75.54
39613;BME280;25303;48.896;13.342;2023-03-14T12:03:01;91152.75;;;8.14;75.58
39613;BME280;25303;48.896;13.342;2023-03-14T12:05:52;91147.22;;;8.11;75.27
39613;BME280;25303;48.896;13.342;2023-03-14T12:08:43;91146.78;;;8.07;75.15
39613;BME280;25303;48.896;13.342;2023-03-14T12:11:35;91134.66;;;7.94;75.41
39613;BME280;25303;48.896;13.342;2023-03-14T12:14:23;91132.50;;;7.98;75.43
39613;BME280;25303;48.896;13.342;2023-03-14T12:17:18;91128.91;;;7.92;75.84
39613;BME280;25303;48.896;13.342;2023-03-14T12:20:05;91128.91;;;7.92;75.44
39613;BME280;25303;48.896;13.342;2023-03-14T12:22:50;91136.00;;;7.90;75.71
39613;BME280;25303;48.896;13.342;2023-03-14T12:25:34;91137.94;;;7.88;75.72
39613;BME280;25303;48.896;13.342;2023-03-14T12:28:20;91125.13;;;7.88;75.90
39613;BME280;25303;48.896;13.342;2023-03-14T12:31:41;91125.28;;;7.86;75.97
39613;BME280;25303;48.896;13.342;2023-03-14T12:34:28;91126.19;;;7.79;75.91
39613;BME280;25303;48.896;13.342;2023-03-14T12:37:23;91124.66;;;7.78;75.53
39613;BME280;25303;48.896;13.342;2023-03-14T12:40:15;91120.03;;;7.73;75.69
39613;BME280;25303;48.896;13.342;2023-03-14T12:43:01;91121.63;;;7.74;75.65
39613;BME280;25303;48.896;13.342;2023-03-14T12:46:07;91123.78;;;7.70;76.05
39613;BME280;25303;48.896;13.342;2023-03-14T12:48:54;91124.75;;;7.69;76.10
39613;BME280;25303;48.896;13.342;2023-03-14T12:51:40;91123.97;;;7.69;76.04
39613;BME280;25303;48.896;13.342;2023-03-14T12:54:35;91123.97;;;7.69;75.94
39613;BME280;25303;48.896;13.342;2023-03-14T12:57:26;91125.38;;;7.71;75.91
39613;BME280;25303;48.896;13.342;2023-03-14T13:00:19;91113.53;;;7.70;75.85
39613;BME280;25303;48.896;13.342;2023-03-14T13:03:15;91123.56;;;7.72;75.84
39613;BME280;25303;48.896;13.342;2023-03-14T13:06:01;91123.56;;;7.72;75.65
39613;BME280;25303;48.896;13.342;2023-03-14T13:08:45;91110.59;;;7.73;75.62
39613;BME280;25303;48.896;13.342;2023-03-14T13:11:28;91111.59;;;7.72;75.61
39613;BME280;25303;48.896;13.342;2023-03-14T13:14:16;91104.06;;;7.71;75.54
39613;BME280;25303;48.896;13.342;2023-03-14T13:16:59;91104.06;;;7.71;75.52
39613;BME280;25303;48.896;13.342;2023-03-14T13:20:11;91104.25;;;7.69;75.64
39613;BME280;25303;48.896;13.342;2023-03-14T13:22:55;91095.78;;;7.69;75.62
39613;BME280;25303;48.896;13.342;2023-03-14T13:25:38;91092.22;;;7.70;75.57
39613;BME280;25303;48.896;13.342;2023-03-14T13:28:21;91100.31;;;7.67;75.70
39613;BME280;25303;48.896;13.342;2023-03-14T13:31:12;91102.41;;;7.63;75.72
39613;BME280;25303;48.896;13.342;2023-03-14T13:34:02;91103.03;;;7.65;75.83
39613;BME280;25303;48.896;13.342;2023-03-14T13:36:51;91107.38;;;7.65;75.80
39613;BME280;25303;48.896;13.342;2023-03-14T13:39:39;91114.44;;;7.63;75.96
39613;BME280;25303;48.896;13.342;2023-03-14T13:42:25;91099.06;;;7.63;75.86
39613;BME280;25303;48.896;13.342;2023-03-14T13:45:12;91111.25;;;7.60;75.91
39613;BME280;25303;48.896;13.342;2023-03-14T13:47:59;91111.63;;;7.57;75.98
39613;BME280;25303;48.896;13.342;2023-03-14T13:51:01;91109.81;;;7.51;76.35
39613;BME280;25303;48.896;13.342;2023-03-14T13:53:47;91104.06;;;7.49;76.66
39613;BME280;25303;48.896;13.342;2023-03-14T13:56:31;91109.59;;;7.53;76.46
39613;BME280;25303;48.896;13.342;2023-03-14T13:59:22;91102.47;;;7.48;76.91
39613;BME280;25303;48.896;13.342;2023-03-14T14:02:12;91102.91;;;7.52;76.82
39613;BME280;25303;48.896;13.342;2023-03-14T14:04:59;91109.06;;;7.57;76.83
39613;BME280;25303;48.896;13.342;2023-03-14T14:07:43;91094.91;;;7.62;76.93
39613;BME280;25303;48.896;13.342;2023-03-14T14:10:29;91098.53;;;7.67;77.00
39613;BME280;25303;48.896;13.342;2023-03-14T14:13:14;91097.00;;;7.73;76.98
39613;BME280;25303;48.896;13.342;2023-03-14T14:16:01;91103.53;;;7.75;76.96
39613;BME280;25303;48.896;13.342;2023-03-14T14:18:46;91100.38;;;7.73;76.88
39613;BME280;25303;48.896;13.342;2023-03-14T14:21:29;91104.88;;;7.71;77.24
39613;BME280;25303;48.896;13.342;2023-03-14T14:24:13;91101.50;;;7.71;77.48
39613;BME280;25303;48.896;13.342;2023-03-14T14:27:01;91105.44;;;7.67;78.14
39613;BME280;25303;48.896;13.342;2023-03-14T14:29:59;91119.00;;;7.67;78.08
39613;BME280;25303;48.896;13.342;2023-03-14T14:32:44;91101.63;;;7.63;78.06
39613;BME280;25303;48.896;13.342;2023-03-14T14:35:32;91102.59;;;7.62;78.24
39613;BME280;25303;48.896;13.342;2023-03-14T14:38:16;91101.44;;;7.64;78.14
39613;BME280;25303;48.896;13.342;2023-03-14T14:41:01;91108.16;;;7.65;78.42
39613;BME280;25303;48.896;13.342;2023-03-14T14:43:46;91116.28;;;7.69;78.53
39613;BME280;25303;48.896;13.342;2023-03-14T14:46:30;91110.16;;;7.70;78.34
39613;BME280;25303;48.896;13.342;2023-03-14T14:49:18;91116.16;;;7.77;78.69